sensor_id;sensor_type;location;lat;lon;timestamp;P1;durP1;ratioP1;P2;durP2;ratioP2
10281;SDS011;5186;59.472;18.048;2024-01-30T00:01:25;13.73;;;5.90;;
10281;SDS011;5186;59.472;18.048;2024-01-30T00:03:50;10.07;;;5.30;;
10281;SDS011;5186;59.472;18.048;2024-01-30T00:06:19;9.43;;;5.03;;
10281;SDS011;5186;59.472;18.048;2024-01-30T00:08:48;12.10;;;5.60;;
10281;SDS011;5186;59.472;18.048;2024-01-30T00:11:14;11.47;;;5.67;;
10281;SDS011;5186;59.472;18.048;2024-01-30T00:13:41;10.60;;;5.30;;
10281;SDS011;5186;59.472;18.048;2024-01-30T00:16:07;8.90;;;5.23;;
10281;SDS011;5186;59.472;18.048;2024-01-30T00:18:33;10.63;;;5.27;;
10281;SDS011;5186;59.472;18.048;2024-01-30T00:20:59;12.27;;;5.47;;
10281;SDS011;5186;59.472;18.048;2024-01-30T00:23:24;10.90;;;4.70;;
10281;SDS011;5186;59.472;18.048;2024-01-30T00:25:50;10.77;;;5.47;;
10281;SDS011;5186;59.472;18.048;2024-01-30T00:28:16;10.30;;;5.30;;
10281;SDS011;5186;59.472;18.048;2024-01-30T00:30:41;10.83;;;5.17;;
10281;SDS011;5186;59.472;18.048;2024-01-30T00:33:08;8.20;;;5.10;;
10281;SDS011;5186;59.472;18.048;2024-01-30T00:35:34;14.60;;;5.57;;
10281;SDS011;5186;59.472;18.048;2024-01-30T00:38:00;8.67;;;5.23;;
10281;SDS011;5186;59.472;18.048;2024-01-30T00:40:26;12.87;;;5.40;;
10281;SDS011;5186;59.472;18.048;2024-01-30T00:42:51;9.70;;;5.73;;
10281;SDS011;5186;59.472;18.048;2024-01-30T00:45:17;11.47;;;4.73;;
10281;SDS011;5186;59.472;18.048;2024-01-30T00:47:43;11.03;;;5.23;;
10281;SDS011;5186;59.472;18.048;2024-01-30T00:50:09;10.77;;;4.90;;
10281;SDS011;5186;59.472;18.048;2024-01-30T00:52:36;11.53;;;4.93;;
10281;SDS011;5186;59.472;18.048;2024-01-30T00:55:02;10.87;;;5.53;;
10281;SDS011;5186;59.472;18.048;2024-01-30T00:57:27;14.77;;;5.77;;
10281;SDS011;5186;59.472;18.048;2024-01-30T00:59:53;16.83;;;6.13;;
10281;SDS011;5186;59.472;18.048;2024-01-30T01:02:19;22.63;;;7.20;;
10281;SDS011;5186;59.472;18.048;2024-01-30T01:04:45;23.30;;;6.83;;
10281;SDS011;5186;59.472;18.048;2024-01-30T01:07:11;16.00;;;6.47;;
10281;SDS011;5186;59.472;18.048;2024-01-30T01:09:36;14.70;;;6.33;;
10281;SDS011;5186;59.472;18.048;2024-01-30T01:12:03;21.30;;;6.40;;
10281;SDS011;5186;59.472;18.048;2024-01-30T01:14:29;18.37;;;6.43;;
10281;SDS011;5186;59.472;18.048;2024-01-30T01:16:55;17.43;;;6.33;;
10281;SDS011;5186;59.472;18.048;2024-01-30T01:19:21;17.10;;;6.13;;
10281;SDS011;5186;59.472;18.048;2024-01-30T01:21:46;16.27;;;6.17;;
10281;SDS011;5186;59.472;18.048;2024-01-30T01:24:12;29.30;;;6.73;;
10281;SDS011;5186;59.472;18.048;2024-01-30T01:26:38;28.33;;;7.37;;
10281;SDS011;5186;59.472;18.048;2024-01-30T01:29:04;37.30;;;8.93;;
10281;SDS011;5186;59.472;18.048;2024-01-30T01:31:35;78.07;;;12.37;;
10281;SDS011;5186;59.472;18.048;2024-01-30T01:34:05;49.77;;;9.13;;
10281;SDS011;5186;59.472;18.048;2024-01-30T01:36:31;50.97;;;9.73;;
10281;SDS011;5186;59.472;18.048;2024-01-30T01:38:56;34.63;;;8.80;;
10281;SDS011;5186;59.472;18.048;2024-01-30T01:41:22;41.73;;;9.13;;
10281;SDS011;5186;59.472;18.048;2024-01-30T01:43:48;68.57;;;12.70;;
10281;SDS011;5186;59.472;18.048;2024-01-30T01:46:13;114.63;;;11.90;;
10281;SDS011;5186;59.472;18.048;2024-01-30T01:48:39;56.33;;;10.07;;
10281;SDS011;5186;59.472;18.048;2024-01-30T01:51:05;45.10;;;9.07;;
10281;SDS011;5186;59.472;18.048;2024-01-30T01:53:31;51.73;;;9.90;;
10281;SDS011;5186;59.472;18.048;2024-01-30T01:55:58;42.43;;;9.70;;
10281;SDS011;5186;59.472;18.048;2024-01-30T01:58:23;69.53;;;11.67;;
10281;SDS011;5186;59.472;18.048;2024-01-30T02:00:54;64.47;;;10.47;;
10281;SDS011;5186;59.472;18.048;2024-01-30T02:03:21;61.97;;;11.43;;
10281;SDS011;5186;59.472;18.048;2024-01-30T02:05:46;60.80;;;9.80;;
10281;SDS011;5186;59.472;18.048;2024-01-30T02:10:48;48.10;;;9.93;;
10281;SDS011;5186;59.472;18.048;2024-01-30T02:13:14;35.57;;;9.47;;
10281;SDS011;5186;59.472;18.048;2024-01-30T02:15:39;48.97;;;10.87;;
10281;SDS011;5186;59.472;18.048;2024-01-30T02:18:05;44.43;;;11.20;;
10281;SDS011;5186;59.472;18.048;2024-01-30T02:20:31;68.07;;;12.03;;
10281;SDS011;5186;59.472;18.048;2024-01-30T02:22:59;68.67;;;12.27;;
10281;SDS011;5186;59.472;18.048;2024-01-30T02:25:35;49.00;;;11.67;;
10281;SDS011;5186;59.472;18.048;2024-01-30T02:28:03;47.13;;;11.13;;
10281;SDS011;5186;59.472;18.048;2024-01-30T02:30:29;61.37;;;10.37;;
10281;SDS011;5186;59.472;18.048;2024-01-30T02:32:55;50.30;;;9.40;;
10281;SDS011;5186;59.472;18.048;2024-01-30T02:35:20;81.97;;;11.90;;
10281;SDS011;5186;59.472;18.048;2024-01-30T02:37:46;59.47;;;10.13;;
10281;SDS011;5186;59.472;18.048;2024-01-30T02:40:11;43.27;;;10.50;;
10281;SDS011;5186;59.472;18.048;2024-01-30T02:42:37;50.77;;;8.93;;
10281;SDS011;5186;59.472;18.048;2024-01-30T02:45:03;52.03;;;9.67;;
10281;SDS011;5186;59.472;18.048;2024-01-30T02:47:29;52.30;;;9.50;;
10281;SDS011;5186;59.472;18.048;2024-01-30T02:49:54;73.67;;;9.77;;
10281;SDS011;5186;59.472;18.048;2024-01-30T02:52:20;45.37;;;8.97;;
10281;SDS011;5186;59.472;18.048;2024-01-30T02:54:45;54.07;;;10.23;;
10281;SDS011;5186;59.472;18.048;2024-01-30T02:57:11;65.30;;;9.90;;
10281;SDS011;5186;59.472;18.048;2024-01-30T02:59:36;57.23;;;9.57;;
10281;SDS011;5186;59.472;18.048;2024-01-30T03:02:02;50.73;;;9.60;;
10281;SDS011;5186;59.472;18.048;2024-01-30T03:04:28;38.50;;;8.73;;
10281;SDS011;5186;59.472;18.048;2024-01-30T03:06:55;42.70;;;8.23;;
10281;SDS011;5186;59.472;18.048;2024-01-30T03:09:20;40.90;;;8.20;;
10281;SDS011;5186;59.472;18.048;2024-01-30T03:11:46;38.53;;;8.53;;
10281;SDS011;5186;59.472;18.048;2024-01-30T03:14:12;49.83;;;9.57;;
10281;SDS011;5186;59.472;18.048;2024-01-30T03:16:37;44.70;;;9.10;;
10281;SDS011;5186;59.472;18.048;2024-01-30T03:19:04;44.13;;;9.77;;
10281;SDS011;5186;59.472;18.048;2024-01-30T03:21:32;36.33;;;8.77;;
10281;SDS011;5186;59.472;18.048;2024-01-30T03:23:58;46.47;;;9.17;;
10281;SDS011;5186;59.472;18.048;2024-01-30T03:26:24;68.80;;;11.70;;
10281;SDS011;5186;59.472;18.048;2024-01-30T03:28:50;36.27;;;9.17;;
10281;SDS011;5186;59.472;18.048;2024-01-30T03:31:15;27.77;;;8.03;;
10281;SDS011;5186;59.472;18.048;2024-01-30T03:33:41;22.20;;;7.07;;
10281;SDS011;5186;59.472;18.048;2024-01-30T03:36:07;18.53;;;7.40;;
10281;SDS011;5186;59.472;18.048;2024-01-30T03:38:33;23.67;;;7.90;;
10281;SDS011;5186;59.472;18.048;2024-01-30T03:40:59;31.20;;;8.10;;
10281;SDS011;5186;59.472;18.048;2024-01-30T03:43:26;34.23;;;8.07;;
10281;SDS011;5186;59.472;18.048;2024-01-30T03:45:52;38.37;;;9.40;;
10281;SDS011;5186;59.472;18.048;2024-01-30T03:48:18;34.47;;;7.77;;
10281;SDS011;5186;59.472;18.048;2024-01-30T03:50:44;36.47;;;8.53;;
10281;SDS011;5186;59.472;18.048;2024-01-30T03:53:10;30.57;;;8.63;;
10281;SDS011;5186;59.472;18.048;2024-01-30T03:55:36;33.90;;;7.93;;
10281;SDS011;5186;59.472;18.048;2024-01-30T03:58:01;30.77;;;7.90;;
10281;SDS011;5186;59.472;18.048;2024-01-30T04:00:27;22.43;;;7.87;;
10281;SDS011;5186;59.472;18.048;2024-01-30T04:02:53;25.90;;;8.93;;
10281;SDS011;5186;59.472;18.048;2024-01-30T04:05:18;30.30;;;8.03;;
10281;SDS011;5186;59.472;18.048;2024-01-30T04:07:44;28.30;;;8.33;;
10281;SDS011;5186;59.472;18.048;2024-01-30T04:10:09;43.47;;;8.33;;
10281;SDS011;5186;59.472;18.048;2024-01-30T04:12:35;28.53;;;8.30;;
10281;SDS011;5186;59.472;18.048;2024-01-30T04:15:01;30.63;;;8.53;;
10281;SDS011;5186;59.472;18.048;2024-01-30T04:17:28;47.27;;;9.17;;
10281;SDS011;5186;59.472;18.048;2024-01-30T04:19:54;28.03;;;8.60;;
10281;SDS011;5186;59.472;18.048;2024-01-30T04:22:20;35.57;;;8.53;;
10281;SDS011;5186;59.472;18.048;2024-01-30T04:24:45;34.53;;;8.23;;
10281;SDS011;5186;59.472;18.048;2024-01-30T04:27:11;26.93;;;8.47;;
10281;SDS011;5186;59.472;18.048;2024-01-30T04:29:37;34.83;;;8.43;;
10281;SDS011;5186;59.472;18.048;2024-01-30T04:32:03;30.83;;;8.60;;
10281;SDS011;5186;59.472;18.048;2024-01-30T04:34:29;28.83;;;7.93;;
10281;SDS011;5186;59.472;18.048;2024-01-30T04:36:54;28.90;;;8.03;;
10281;SDS011;5186;59.472;18.048;2024-01-30T04:39:20;46.83;;;8.87;;
10281;SDS011;5186;59.472;18.048;2024-01-30T04:41:45;21.50;;;7.80;;
10281;SDS011;5186;59.472;18.048;2024-01-30T04:44:11;26.57;;;8.33;;
10281;SDS011;5186;59.472;18.048;2024-01-30T04:46:37;20.10;;;7.73;;
10281;SDS011;5186;59.472;18.048;2024-01-30T04:49:02;20.93;;;8.00;;
10281;SDS011;5186;59.472;18.048;2024-01-30T04:51:28;29.20;;;8.77;;
10281;SDS011;5186;59.472;18.048;2024-01-30T04:53:54;21.10;;;8.03;;
10281;SDS011;5186;59.472;18.048;2024-01-30T04:56:20;25.37;;;7.47;;
10281;SDS011;5186;59.472;18.048;2024-01-30T04:58:46;19.87;;;7.37;;
10281;SDS011;5186;59.472;18.048;2024-01-30T05:01:18;24.00;;;7.27;;
10281;SDS011;5186;59.472;18.048;2024-01-30T05:03:43;24.20;;;7.73;;
10281;SDS011;5186;59.472;18.048;2024-01-30T05:06:09;26.53;;;7.70;;
10281;SDS011;5186;59.472;18.048;2024-01-30T05:08:34;21.73;;;7.53;;
10281;SDS011;5186;59.472;18.048;2024-01-30T05:11:04;20.20;;;7.03;;
10281;SDS011;5186;59.472;18.048;2024-01-30T05:13:31;28.23;;;8.27;;
10281;SDS011;5186;59.472;18.048;2024-01-30T05:15:56;31.53;;;7.53;;
10281;SDS011;5186;59.472;18.048;2024-01-30T05:18:22;28.87;;;8.60;;
10281;SDS011;5186;59.472;18.048;2024-01-30T05:20:49;30.53;;;8.40;;
10281;SDS011;5186;59.472;18.048;2024-01-30T05:23:15;38.00;;;8.57;;
10281;SDS011;5186;59.472;18.048;2024-01-30T05:25:41;29.27;;;7.43;;
10281;SDS011;5186;59.472;18.048;2024-01-30T05:28:07;20.37;;;7.47;;
10281;SDS011;5186;59.472;18.048;2024-01-30T05:30:32;24.53;;;7.97;;
10281;SDS011;5186;59.472;18.048;2024-01-30T05:32:58;22.30;;;7.73;;
10281;SDS011;5186;59.472;18.048;2024-01-30T05:35:24;31.80;;;8.40;;
10281;SDS011;5186;59.472;18.048;2024-01-30T05:37:49;26.63;;;7.07;;
10281;SDS011;5186;59.472;18.048;2024-01-30T05:40:15;47.73;;;8.53;;
10281;SDS011;5186;59.472;18.048;2024-01-30T05:42:41;25.73;;;7.87;;
10281;SDS011;5186;59.472;18.048;2024-01-30T05:45:07;29.17;;;8.47;;
10281;SDS011;5186;59.472;18.048;2024-01-30T05:47:33;31.23;;;8.53;;
10281;SDS011;5186;59.472;18.048;2024-01-30T05:49:59;41.93;;;8.67;;
10281;SDS011;5186;59.472;18.048;2024-01-30T05:52:25;42.93;;;8.70;;
10281;SDS011;5186;59.472;18.048;2024-01-30T05:54:50;32.67;;;8.40;;
10281;SDS011;5186;59.472;18.048;2024-01-30T05:57:16;43.13;;;8.60;;
10281;SDS011;5186;59.472;18.048;2024-01-30T05:59:42;54.43;;;8.73;;
10281;SDS011;5186;59.472;18.048;2024-01-30T06:02:13;33.37;;;8.00;;
10281;SDS011;5186;59.472;18.048;2024-01-30T06:04:39;29.70;;;7.90;;
10281;SDS011;5186;59.472;18.048;2024-01-30T06:07:04;39.47;;;7.60;;
10281;SDS011;5186;59.472;18.048;2024-01-30T06:09:31;34.03;;;7.87;;
10281;SDS011;5186;59.472;18.048;2024-01-30T06:11:57;33.83;;;7.83;;
10281;SDS011;5186;59.472;18.048;2024-01-30T06:14:22;30.27;;;7.30;;
10281;SDS011;5186;59.472;18.048;2024-01-30T06:16:48;35.77;;;8.43;;
10281;SDS011;5186;59.472;18.048;2024-01-30T06:19:14;42.97;;;8.07;;
10281;SDS011;5186;59.472;18.048;2024-01-30T06:21:40;43.37;;;8.40;;
10281;SDS011;5186;59.472;18.048;2024-01-30T06:24:06;38.07;;;9.07;;
10281;SDS011;5186;59.472;18.048;2024-01-30T06:26:31;57.77;;;8.33;;
10281;SDS011;5186;59.472;18.048;2024-01-30T06:28:57;36.43;;;7.90;;
10281;SDS011;5186;59.472;18.048;2024-01-30T06:31:23;35.60;;;8.30;;
10281;SDS011;5186;59.472;18.048;2024-01-30T06:33:49;37.57;;;8.47;;
10281;SDS011;5186;59.472;18.048;2024-01-30T06:36:15;33.03;;;8.67;;
10281;SDS011;5186;59.472;18.048;2024-01-30T06:38:41;34.90;;;9.43;;
10281;SDS011;5186;59.472;18.048;2024-01-30T06:41:06;51.90;;;8.40;;
10281;SDS011;5186;59.472;18.048;2024-01-30T06:43:32;36.27;;;8.70;;
10281;SDS011;5186;59.472;18.048;2024-01-30T06:45:58;31.13;;;8.37;;
10281;SDS011;5186;59.472;18.048;2024-01-30T06:48:24;37.90;;;8.43;;
10281;SDS011;5186;59.472;18.048;2024-01-30T06:50:50;37.47;;;8.80;;
10281;SDS011;5186;59.472;18.048;2024-01-30T06:53:18;48.00;;;9.17;;
10281;SDS011;5186;59.472;18.048;2024-01-30T06:55:44;35.57;;;7.77;;
10281;SDS011;5186;59.472;18.048;2024-01-30T06:58:10;29.27;;;8.63;;
10281;SDS011;5186;59.472;18.048;2024-01-30T07:00:36;24.87;;;8.50;;
10281;SDS011;5186;59.472;18.048;2024-01-30T07:03:02;17.50;;;7.63;;
10281;SDS011;5186;59.472;18.048;2024-01-30T07:05:28;24.03;;;8.17;;
10281;SDS011;5186;59.472;18.048;2024-01-30T07:07:53;22.03;;;8.77;;
10281;SDS011;5186;59.472;18.048;2024-01-30T07:10:19;18.83;;;7.87;;
10281;SDS011;5186;59.472;18.048;2024-01-30T07:12:45;20.53;;;7.40;;
10281;SDS011;5186;59.472;18.048;2024-01-30T07:15:10;35.60;;;8.90;;
10281;SDS011;5186;59.472;18.048;2024-01-30T07:17:36;27.00;;;8.53;;
10281;SDS011;5186;59.472;18.048;2024-01-30T07:20:02;19.60;;;7.83;;
10281;SDS011;5186;59.472;18.048;2024-01-30T07:22:31;23.83;;;9.20;;
10281;SDS011;5186;59.472;18.048;2024-01-30T07:24:58;26.17;;;8.57;;
10281;SDS011;5186;59.472;18.048;2024-01-30T07:27:24;31.77;;;8.87;;
10281;SDS011;5186;59.472;18.048;2024-01-30T07:29:49;21.13;;;8.43;;
10281;SDS011;5186;59.472;18.048;2024-01-30T07:32:15;21.40;;;8.93;;
10281;SDS011;5186;59.472;18.048;2024-01-30T07:34:41;19.67;;;8.17;;
10281;SDS011;5186;59.472;18.048;2024-01-30T07:37:06;18.07;;;8.07;;
10281;SDS011;5186;59.472;18.048;2024-01-30T07:39:33;27.90;;;8.60;;
10281;SDS011;5186;59.472;18.048;2024-01-30T07:41:59;41.00;;;8.93;;
10281;SDS011;5186;59.472;18.048;2024-01-30T07:44:25;41.33;;;9.33;;
10281;SDS011;5186;59.472;18.048;2024-01-30T07:46:51;39.90;;;8.77;;
10281;SDS011;5186;59.472;18.048;2024-01-30T07:49:16;21.37;;;8.10;;
10281;SDS011;5186;59.472;18.048;2024-01-30T07:51:42;24.23;;;7.33;;
10281;SDS011;5186;59.472;18.048;2024-01-30T07:54:08;19.10;;;6.13;;
10281;SDS011;5186;59.472;18.048;2024-01-30T07:56:34;19.70;;;6.70;;
10281;SDS011;5186;59.472;18.048;2024-01-30T07:59:00;23.63;;;6.63;;
10281;SDS011;5186;59.472;18.048;2024-01-30T08:01:25;22.60;;;6.77;;
10281;SDS011;5186;59.472;18.048;2024-01-30T08:03:51;17.87;;;5.60;;
10281;SDS011;5186;59.472;18.048;2024-01-30T08:06:16;10.60;;;5.47;;
10281;SDS011;5186;59.472;18.048;2024-01-30T08:08:42;18.10;;;5.80;;
10281;SDS011;5186;59.472;18.048;2024-01-30T08:11:08;16.03;;;5.83;;
10281;SDS011;5186;59.472;18.048;2024-01-30T08:13:33;16.23;;;5.60;;
10281;SDS011;5186;59.472;18.048;2024-01-30T08:15:59;14.30;;;5.17;;
10281;SDS011;5186;59.472;18.048;2024-01-30T08:18:24;18.50;;;6.50;;
10281;SDS011;5186;59.472;18.048;2024-01-30T08:20:50;25.37;;;6.80;;
10281;SDS011;5186;59.472;18.048;2024-01-30T08:23:16;22.80;;;6.00;;
10281;SDS011;5186;59.472;18.048;2024-01-30T08:25:41;19.23;;;5.77;;
10281;SDS011;5186;59.472;18.048;2024-01-30T08:28:07;16.67;;;5.60;;
10281;SDS011;5186;59.472;18.048;2024-01-30T08:30:33;22.83;;;5.93;;
10281;SDS011;5186;59.472;18.048;2024-01-30T08:32:58;16.37;;;6.13;;
10281;SDS011;5186;59.472;18.048;2024-01-30T08:35:24;19.40;;;5.77;;
10281;SDS011;5186;59.472;18.048;2024-01-30T08:37:50;32.77;;;5.83;;
10281;SDS011;5186;59.472;18.048;2024-01-30T08:40:15;17.03;;;5.50;;
10281;SDS011;5186;59.472;18.048;2024-01-30T08:42:41;22.50;;;5.67;;
10281;SDS011;5186;59.472;18.048;2024-01-30T08:45:06;23.40;;;6.80;;
10281;SDS011;5186;59.472;18.048;2024-01-30T08:47:33;19.47;;;6.03;;
10281;SDS011;5186;59.472;18.048;2024-01-30T08:49:58;12.77;;;5.90;;
10281;SDS011;5186;59.472;18.048;2024-01-30T08:52:24;18.67;;;5.70;;
10281;SDS011;5186;59.472;18.048;2024-01-30T08:54:50;14.80;;;5.80;;
10281;SDS011;5186;59.472;18.048;2024-01-30T08:57:15;16.73;;;5.93;;
10281;SDS011;5186;59.472;18.048;2024-01-30T08:59:41;18.40;;;6.27;;
10281;SDS011;5186;59.472;18.048;2024-01-30T09:02:09;13.13;;;5.93;;
10281;SDS011;5186;59.472;18.048;2024-01-30T09:04:35;19.40;;;6.73;;
10281;SDS011;5186;59.472;18.048;2024-01-30T09:07:00;19.23;;;6.00;;
10281;SDS011;5186;59.472;18.048;2024-01-30T09:09:26;13.60;;;5.13;;
10281;SDS011;5186;59.472;18.048;2024-01-30T09:11:51;14.23;;;5.60;;
10281;SDS011;5186;59.472;18.048;2024-01-30T09:14:17;16.70;;;6.50;;
10281;SDS011;5186;59.472;18.048;2024-01-30T09:16:43;17.50;;;6.43;;
10281;SDS011;5186;59.472;18.048;2024-01-30T09:19:08;17.07;;;6.40;;
10281;SDS011;5186;59.472;18.048;2024-01-30T09:21:34;31.60;;;6.60;;
10281;SDS011;5186;59.472;18.048;2024-01-30T09:24:03;13.53;;;6.17;;
10281;SDS011;5186;59.472;18.048;2024-01-30T09:26:29;17.83;;;6.97;;
10281;SDS011;5186;59.472;18.048;2024-01-30T09:28:54;22.30;;;7.00;;
10281;SDS011;5186;59.472;18.048;2024-01-30T09:31:20;15.13;;;5.60;;
10281;SDS011;5186;59.472;18.048;2024-01-30T09:33:46;16.70;;;6.87;;
10281;SDS011;5186;59.472;18.048;2024-01-30T09:36:13;12.37;;;5.93;;
10281;SDS011;5186;59.472;18.048;2024-01-30T09:38:40;13.83;;;6.20;;
10281;SDS011;5186;59.472;18.048;2024-01-30T09:41:07;14.13;;;6.70;;
10281;SDS011;5186;59.472;18.048;2024-01-30T09:43:35;14.03;;;6.40;;
10281;SDS011;5186;59.472;18.048;2024-01-30T09:46:04;14.27;;;5.97;;
10281;SDS011;5186;59.472;18.048;2024-01-30T09:48:33;17.73;;;6.93;;
10281;SDS011;5186;59.472;18.048;2024-01-30T09:50:59;18.47;;;6.93;;
10281;SDS011;5186;59.472;18.048;2024-01-30T09:53:25;18.47;;;7.00;;
10281;SDS011;5186;59.472;18.048;2024-01-30T09:55:51;14.97;;;7.10;;
10281;SDS011;5186;59.472;18.048;2024-01-30T09:58:17;13.63;;;6.57;;
10281;SDS011;5186;59.472;18.048;2024-01-30T10:00:42;19.10;;;7.27;;
10281;SDS011;5186;59.472;18.048;2024-01-30T10:03:08;16.70;;;6.30;;
10281;SDS011;5186;59.472;18.048;2024-01-30T10:05:35;13.40;;;6.53;;
10281;SDS011;5186;59.472;18.048;2024-01-30T10:08:05;15.77;;;6.80;;
10281;SDS011;5186;59.472;18.048;2024-01-30T10:10:33;15.20;;;7.10;;
10281;SDS011;5186;59.472;18.048;2024-01-30T10:13:00;14.60;;;6.70;;
10281;SDS011;5186;59.472;18.048;2024-01-30T10:15:26;17.07;;;6.90;;
10281;SDS011;5186;59.472;18.048;2024-01-30T10:17:53;17.10;;;7.97;;
10281;SDS011;5186;59.472;18.048;2024-01-30T10:20:19;16.03;;;7.43;;
10281;SDS011;5186;59.472;18.048;2024-01-30T10:22:47;15.20;;;6.53;;
10281;SDS011;5186;59.472;18.048;2024-01-30T10:25:13;15.47;;;6.63;;
10281;SDS011;5186;59.472;18.048;2024-01-30T10:27:39;13.87;;;6.77;;
10281;SDS011;5186;59.472;18.048;2024-01-30T10:30:05;15.43;;;7.00;;
10281;SDS011;5186;59.472;18.048;2024-01-30T10:32:32;16.33;;;7.30;;
10281;SDS011;5186;59.472;18.048;2024-01-30T10:34:57;18.37;;;7.17;;
10281;SDS011;5186;59.472;18.048;2024-01-30T10:37:24;14.20;;;7.20;;
10281;SDS011;5186;59.472;18.048;2024-01-30T10:39:51;22.33;;;8.07;;
10281;SDS011;5186;59.472;18.048;2024-01-30T10:42:18;13.67;;;7.33;;
10281;SDS011;5186;59.472;18.048;2024-01-30T10:47:26;15.13;;;7.13;;
10281;SDS011;5186;59.472;18.048;2024-01-30T10:49:52;16.93;;;7.47;;
10281;SDS011;5186;59.472;18.048;2024-01-30T10:52:19;14.37;;;7.37;;
10281;SDS011;5186;59.472;18.048;2024-01-30T10:54:47;13.40;;;7.07;;
10281;SDS011;5186;59.472;18.048;2024-01-30T10:57:15;16.97;;;7.90;;
10281;SDS011;5186;59.472;18.048;2024-01-30T10:59:41;16.13;;;7.63;;
10281;SDS011;5186;59.472;18.048;2024-01-30T11:02:08;17.10;;;7.80;;
10281;SDS011;5186;59.472;18.048;2024-01-30T11:04:36;15.40;;;7.37;;
10281;SDS011;5186;59.472;18.048;2024-01-30T11:07:02;16.83;;;7.83;;
10281;SDS011;5186;59.472;18.048;2024-01-30T11:09:29;15.60;;;8.03;;
10281;SDS011;5186;59.472;18.048;2024-01-30T11:11:58;17.30;;;8.77;;
10281;SDS011;5186;59.472;18.048;2024-01-30T11:14:29;17.33;;;8.13;;
10281;SDS011;5186;59.472;18.048;2024-01-30T11:16:58;13.83;;;6.97;;
10281;SDS011;5186;59.472;18.048;2024-01-30T11:19:25;13.87;;;7.50;;
10281;SDS011;5186;59.472;18.048;2024-01-30T11:21:54;15.30;;;7.60;;
10281;SDS011;5186;59.472;18.048;2024-01-30T11:24:21;13.87;;;7.37;;
10281;SDS011;5186;59.472;18.048;2024-01-30T11:26:57;14.33;;;7.60;;
10281;SDS011;5186;59.472;18.048;2024-01-30T11:29:29;14.57;;;7.57;;
10281;SDS011;5186;59.472;18.048;2024-01-30T11:31:56;15.10;;;7.27;;
10281;SDS011;5186;59.472;18.048;2024-01-30T11:34:22;14.40;;;7.10;;
10281;SDS011;5186;59.472;18.048;2024-01-30T11:36:51;14.87;;;7.70;;
10281;SDS011;5186;59.472;18.048;2024-01-30T11:39:23;15.07;;;7.63;;
10281;SDS011;5186;59.472;18.048;2024-01-30T11:41:54;14.47;;;7.00;;
10281;SDS011;5186;59.472;18.048;2024-01-30T11:44:20;15.23;;;7.33;;
10281;SDS011;5186;59.472;18.048;2024-01-30T11:46:50;14.97;;;8.00;;
10281;SDS011;5186;59.472;18.048;2024-01-30T11:49:18;16.43;;;7.63;;
10281;SDS011;5186;59.472;18.048;2024-01-30T11:51:47;14.40;;;7.90;;
10281;SDS011;5186;59.472;18.048;2024-01-30T11:54:14;16.07;;;7.93;;
10281;SDS011;5186;59.472;18.048;2024-01-30T11:56:43;14.43;;;7.37;;
10281;SDS011;5186;59.472;18.048;2024-01-30T11:59:08;13.77;;;7.07;;
10281;SDS011;5186;59.472;18.048;2024-01-30T12:01:34;12.00;;;6.97;;
10281;SDS011;5186;59.472;18.048;2024-01-30T12:04:01;14.77;;;7.13;;
10281;SDS011;5186;59.472;18.048;2024-01-30T12:06:27;15.57;;;6.70;;
10281;SDS011;5186;59.472;18.048;2024-01-30T12:09:00;14.40;;;7.10;;
10281;SDS011;5186;59.472;18.048;2024-01-30T12:11:29;13.77;;;6.50;;
10281;SDS011;5186;59.472;18.048;2024-01-30T12:13:55;15.50;;;7.33;;
10281;SDS011;5186;59.472;18.048;2024-01-30T12:16:21;17.03;;;7.93;;
10281;SDS011;5186;59.472;18.048;2024-01-30T12:18:47;14.00;;;7.17;;
10281;SDS011;5186;59.472;18.048;2024-01-30T12:21:16;14.77;;;7.77;;
10281;SDS011;5186;59.472;18.048;2024-01-30T12:23:42;15.53;;;7.67;;
10281;SDS011;5186;59.472;18.048;2024-01-30T12:26:08;14.37;;;8.07;;
10281;SDS011;5186;59.472;18.048;2024-01-30T12:28:35;16.77;;;7.50;;
10281;SDS011;5186;59.472;18.048;2024-01-30T12:31:01;16.77;;;8.57;;
10281;SDS011;5186;59.472;18.048;2024-01-30T12:33:28;19.90;;;8.70;;
10281;SDS011;5186;59.472;18.048;2024-01-30T12:35:55;19.20;;;8.43;;
10281;SDS011;5186;59.472;18.048;2024-01-30T12:38:22;15.80;;;8.40;;
10281;SDS011;5186;59.472;18.048;2024-01-30T12:40:49;16.80;;;8.13;;
10281;SDS011;5186;59.472;18.048;2024-01-30T12:43:15;18.30;;;8.37;;
10281;SDS011;5186;59.472;18.048;2024-01-30T12:45:41;22.07;;;8.67;;
10281;SDS011;5186;59.472;18.048;2024-01-30T12:48:07;20.17;;;8.50;;
10281;SDS011;5186;59.472;18.048;2024-01-30T12:50:33;19.70;;;8.67;;
10281;SDS011;5186;59.472;18.048;2024-01-30T12:52:59;21.00;;;10.10;;
10281;SDS011;5186;59.472;18.048;2024-01-30T12:55:25;16.63;;;8.67;;
10281;SDS011;5186;59.472;18.048;2024-01-30T12:57:53;19.53;;;9.00;;
10281;SDS011;5186;59.472;18.048;2024-01-30T13:00:19;20.43;;;9.40;;
10281;SDS011;5186;59.472;18.048;2024-01-30T13:02:47;23.33;;;9.97;;
10281;SDS011;5186;59.472;18.048;2024-01-30T13:05:13;22.40;;;10.07;;
10281;SDS011;5186;59.472;18.048;2024-01-30T13:07:38;19.20;;;9.70;;
10281;SDS011;5186;59.472;18.048;2024-01-30T13:10:04;22.37;;;9.67;;
10281;SDS011;5186;59.472;18.048;2024-01-30T13:12:31;21.27;;;10.20;;
10281;SDS011;5186;59.472;18.048;2024-01-30T13:15:00;18.87;;;9.93;;
10281;SDS011;5186;59.472;18.048;2024-01-30T13:17:26;20.40;;;9.67;;
10281;SDS011;5186;59.472;18.048;2024-01-30T13:19:52;19.33;;;9.50;;
10281;SDS011;5186;59.472;18.048;2024-01-30T13:22:19;20.27;;;9.80;;
10281;SDS011;5186;59.472;18.048;2024-01-30T13:24:46;19.50;;;9.70;;
10281;SDS011;5186;59.472;18.048;2024-01-30T13:27:12;20.17;;;9.77;;
10281;SDS011;5186;59.472;18.048;2024-01-30T13:29:38;22.63;;;10.40;;
10281;SDS011;5186;59.472;18.048;2024-01-30T13:32:04;18.00;;;9.90;;
10281;SDS011;5186;59.472;18.048;2024-01-30T13:34:29;23.70;;;10.57;;
10281;SDS011;5186;59.472;18.048;2024-01-30T13:36:55;22.47;;;10.47;;
10281;SDS011;5186;59.472;18.048;2024-01-30T13:39:21;20.20;;;10.30;;
10281;SDS011;5186;59.472;18.048;2024-01-30T13:41:48;22.23;;;10.07;;
10281;SDS011;5186;59.472;18.048;2024-01-30T13:44:14;22.33;;;10.23;;
10281;SDS011;5186;59.472;18.048;2024-01-30T13:46:41;22.77;;;11.20;;
10281;SDS011;5186;59.472;18.048;2024-01-30T13:49:07;25.00;;;10.80;;
10281;SDS011;5186;59.472;18.048;2024-01-30T13:51:33;24.07;;;10.33;;
10281;SDS011;5186;59.472;18.048;2024-01-30T13:53:58;25.53;;;11.23;;
10281;SDS011;5186;59.472;18.048;2024-01-30T13:56:24;22.53;;;10.73;;
10281;SDS011;5186;59.472;18.048;2024-01-30T13:58:51;23.97;;;11.23;;
10281;SDS011;5186;59.472;18.048;2024-01-30T14:01:17;23.97;;;10.40;;
10281;SDS011;5186;59.472;18.048;2024-01-30T14:03:43;24.37;;;11.13;;
10281;SDS011;5186;59.472;18.048;2024-01-30T14:06:09;29.10;;;11.37;;
10281;SDS011;5186;59.472;18.048;2024-01-30T14:08:35;24.43;;;11.90;;
10281;SDS011;5186;59.472;18.048;2024-01-30T14:11:00;30.67;;;12.13;;
10281;SDS011;5186;59.472;18.048;2024-01-30T14:13:26;30.53;;;11.93;;
10281;SDS011;5186;59.472;18.048;2024-01-30T14:15:52;30.27;;;12.33;;
10281;SDS011;5186;59.472;18.048;2024-01-30T14:18:18;35.30;;;12.37;;
10281;SDS011;5186;59.472;18.048;2024-01-30T14:20:43;24.47;;;11.93;;
10281;SDS011;5186;59.472;18.048;2024-01-30T14:23:09;26.47;;;12.20;;
10281;SDS011;5186;59.472;18.048;2024-01-30T14:25:35;29.93;;;12.33;;
10281;SDS011;5186;59.472;18.048;2024-01-30T14:28:00;25.33;;;11.20;;
10281;SDS011;5186;59.472;18.048;2024-01-30T14:30:26;29.37;;;11.70;;
10281;SDS011;5186;59.472;18.048;2024-01-30T14:32:51;31.40;;;13.20;;